createdAt,value
2019-06-20T00:03:25.000Z,25.4
2019-06-20T00:13:25.000Z,25.4
2019-06-20T00:23:25.000Z,25.3
2019-06-20T00:33:25.000Z,25.3
2019-06-20T00:43:25.000Z,25.3
2019-06-20T00:53:26.000Z,25.2
2019-06-20T01:03:26.000Z,25.2
2019-06-20T01:13:26.000Z,25.2
2019-06-20T01:23:26.000Z,25.2
2019-06-20T01:33:26.000Z,25.2
2019-06-20T01:43:25.000Z,25.1
2019-06-20T01:53:26.000Z,25.2
2019-06-20T02:03:26.000Z,25.2
2019-06-20T02:13:26.000Z,25.1
2019-06-20T02:23:26.000Z,25
2019-06-20T02:33:26.000Z,25
2019-06-20T02:43:26.000Z,25
2019-06-20T02:53:26.000Z,25
2019-06-20T03:03:26.000Z,25
2019-06-20T03:13:26.000Z,24.9
2019-06-20T03:23:27.000Z,24.9
2019-06-20T03:33:26.000Z,24.9
2019-06-20T03:43:26.000Z,24.9
2019-06-20T03:53:26.000Z,24.4
2019-06-20T04:03:26.000Z,23.5
2019-06-20T04:13:26.000Z,23.2
2019-06-20T04:23:26.000Z,23.1
2019-06-20T04:33:26.000Z,22.9
2019-06-20T04:43:26.000Z,22.9
2019-06-20T04:53:26.000Z,22.9
2019-06-20T05:03:26.000Z,23
2019-06-20T05:13:26.000Z,23
2019-06-20T05:23:26.000Z,23.1
2019-06-20T05:33:26.000Z,23.1
2019-06-20T05:43:26.000Z,23
2019-06-20T05:53:27.000Z,23.1
2019-06-20T06:03:26.000Z,23.1
2019-06-20T06:13:27.000Z,23.1
2019-06-20T06:23:26.000Z,23.2
2019-06-20T06:33:26.000Z,23.3
2019-06-20T06:43:26.000Z,24.1
2019-06-20T06:53:26.000Z,24.6
2019-06-20T07:03:26.000Z,24.8
2019-06-20T07:13:26.000Z,25
2019-06-20T07:23:26.000Z,25
2019-06-20T07:33:26.000Z,25.2
2019-06-20T07:43:26.000Z,25.2
2019-06-20T07:53:26.000Z,25.3
2019-06-20T08:03:27.000Z,25
2019-06-20T08:13:27.000Z,25.2
2019-06-20T08:23:27.000Z,25.3
2019-06-20T08:33:27.000Z,25.4
2019-06-20T08:43:27.000Z,25.4
2019-06-20T08:53:27.000Z,25.4
2019-06-20T09:03:28.000Z,25.5
2019-06-20T09:13:27.000Z,25.5
2019-06-20T09:23:27.000Z,25.3
2019-06-20T09:33:27.000Z,25.2
2019-06-20T09:43:28.000Z,25
2019-06-20T09:53:27.000Z,24.9
2019-06-20T10:03:28.000Z,25.1
2019-06-20T10:13:28.000Z,25.4
2019-06-20T10:23:27.000Z,25.2
2019-06-20T10:43:27.000Z,25.1
2019-06-20T10:53:27.000Z,25.2
2019-06-20T11:03:28.000Z,25.4
2019-06-20T11:13:28.000Z,25.5
2019-06-20T11:23:27.000Z,25.6
2019-06-20T11:33:27.000Z,25.6
2019-06-20T11:43:27.000Z,25.7
2019-06-20T11:53:27.000Z,25.7
2019-06-20T12:03:28.000Z,25.7
2019-06-20T12:13:28.000Z,25.7
2019-06-20T12:23:30.000Z,25.8
2019-06-20T12:33:27.000Z,25.8
2019-06-20T12:43:27.000Z,25.7
2019-06-20T12:53:27.000Z,25.9
2019-06-20T13:03:27.000Z,25.8
2019-06-20T13:13:27.000Z,25.8
2019-06-20T13:23:27.000Z,25.9
2019-06-20T13:33:27.000Z,25.9
2019-06-20T13:43:29.000Z,25.9
2019-06-20T13:53:27.000Z,25.9
2019-06-20T14:03:27.000Z,25.9
2019-06-20T14:13:27.000Z,25.9
2019-06-20T14:23:27.000Z,25.8
2019-06-20T14:43:28.000Z,25.8
2019-06-20T14:53:28.000Z,25.9
2019-06-20T15:03:28.000Z,25.9
2019-06-20T15:43:28.000Z,25.9
2019-06-20T15:53:28.000Z,26.7
2019-06-20T16:03:28.000Z,26.2
2019-06-20T16:13:28.000Z,26.1
2019-06-20T16:23:29.000Z,26
2019-06-20T16:33:28.000Z,26
2019-06-20T16:43:28.000Z,26
2019-06-20T16:53:28.000Z,25.9
2019-06-20T17:03:28.000Z,25.9
2019-06-20T17:13:28.000Z,25.9
2019-06-20T17:23:28.000Z,25.9
2019-06-20T17:33:28.000Z,25
2019-06-20T17:43:28.000Z,24.5
2019-06-20T17:53:28.000Z,24.1
2019-06-20T18:03:28.000Z,24
2019-06-20T18:13:28.000Z,23.8
2019-06-20T18:23:29.000Z,23.7
2019-06-20T18:33:28.000Z,23.7
2019-06-20T18:53:28.000Z,23.7
2019-06-20T19:03:28.000Z,24.4
2019-06-20T19:13:29.000Z,24.4
2019-06-20T19:23:28.000Z,24.9
2019-06-20T19:33:28.000Z,25.1
2019-06-20T19:43:28.000Z,25.1
2019-06-20T19:53:28.000Z,25.2
